Time;durP1;ratioP1;P1;durP2;ratioP2;P2;SDS_P1;SDS_P2;PMS_P1;PMS_P2;Temp;Humidity;BMP_temperature;BMP_pressure;BME280_temperature;BME280_humidity;BME280_pressure;Samples;Min_cycle;Max_cycle;Signal;HPM_P1;HPM_P2
2022/12/04 00:01:10;;;;;;;;;;;;;;;9.06;57.35;99341.72;4482389;32;19986;-81
2022/12/04 00:03:36;;;;;;;;;;;;;;;9.05;57.41;99348.75;4481283;31;19976;-80
2022/12/04 00:06:08;;;;;;;;;;;;;;;9.00;57.50;99336.69;4491136;31;19987;-79
2022/12/04 00:08:34;;;;;;;;;;;;;;;9.00;57.59;99339.31;4472464;31;20023;-77
2022/12/04 00:10:59;;;;;;;;;;;;;;;8.97;57.74;99340.31;4476888;31;19971;-77
2022/12/04 00:13:25;;;;;;;;;;;;;;;8.97;57.70;99334.22;4480927;32;20393;-80
2022/12/04 00:15:50;;;;;;;;;;;;;;;8.97;57.74;99335.06;4482266;31;20284;-81
2022/12/04 00:18:18;;;;;;;;;;;;;;;8.96;57.87;99343.00;4489866;31;19982;-79
2022/12/04 00:20:43;;;;;;;;;;;;;;;8.92;58.00;99338.78;4486544;32;20346;-80
2022/12/04 00:23:09;;;;;;;;;;;;;;;8.92;58.05;99337.00;4471815;32;20003;-79
2022/12/04 00:25:34;;;;;;;;;;;;;;;8.92;57.97;99336.16;4485715;32;20318;-80
2022/12/04 00:27:59;;;;;;;;;;;;;;;8.91;57.96;99340.56;4485683;32;20002;-78
2022/12/04 00:30:24;;;;;;;;;;;;;;;8.90;57.97;99343.22;4486108;32;20019;-78
2022/12/04 00:32:49;;;;;;;;;;;;;;;8.89;57.95;99350.28;4485447;32;20102;-78
2022/12/04 00:35:15;;;;;;;;;;;;;;;8.89;57.91;99350.28;4485957;32;19984;-78
2022/12/04 00:37:40;;;;;;;;;;;;;;;8.87;57.91;99354.72;4457858;32;19984;-78
2022/12/04 00:40:06;;;;;;;;;;;;;;;8.87;57.91;99353.87;4471766;32;19963;-78
2022/12/04 00:42:31;;;;;;;;;;;;;;;8.84;57.89;99344.31;4470003;32;20007;-78
2022/12/04 00:44:56;;;;;;;;;;;;;;;8.80;57.97;99348.84;4471003;32;19983;-78
2022/12/04 00:47:21;;;;;;;;;;;;;;;8.79;58.06;99341.03;4471571;32;20006;-78
2022/12/04 00:49:47;;;;;;;;;;;;;;;8.77;58.02;99338.47;4471450;32;19982;-78
2022/12/04 00:52:12;;;;;;;;;;;;;;;8.77;57.96;99337.59;4471267;32;19995;-78
2022/12/04 00:54:37;;;;;;;;;;;;;;;8.71;58.02;99343.97;4470172;32;20036;-78
2022/12/04 00:57:02;;;;;;;;;;;;;;;8.71;58.07;99337.81;4471441;32;20027;-78
2022/12/04 00:59:28;;;;;;;;;;;;;;;8.70;58.07;99338.75;4471313;32;19967;-78
2022/12/04 01:01:53;;;;;;;;;;;;;;;8.68;58.13;99343.22;4471125;32;19999;-78
2022/12/04 01:04:18;;;;;;;;;;;;;;;8.67;58.23;99342.34;4471152;32;20016;-78
2022/12/04 01:06:43;;;;;;;;;;;;;;;8.64;58.27;99337.22;4471349;32;20026;-77
2022/12/04 01:09:09;;;;;;;;;;;;;;;8.62;58.35;99337.25;4469901;32;19972;-78
2022/12/04 01:11:34;;;;;;;;;;;;;;;8.60;58.46;99340.88;4469957;32;20284;-78
2022/12/04 01:13:59;;;;;;;;;;;;;;;8.59;58.56;99334.75;4469849;32;20049;-78
2022/12/04 01:16:29;;;;;;;;;;;;;;;8.59;58.68;99337.37;4471175;32;19992;-78
2022/12/04 01:18:55;;;;;;;;;;;;;;;8.59;58.79;99329.50;4471068;32;19972;-78
2022/12/04 01:21:20;;;;;;;;;;;;;;;8.52;59.02;99332.41;4470823;32;19986;-78
2022/12/04 01:23:45;;;;;;;;;;;;;;;8.50;59.17;99343.00;4469847;32;19973;-80
2022/12/04 01:26:11;;;;;;;;;;;;;;;8.52;59.25;99343.78;4469752;32;19985;-80
2022/12/04 01:28:36;;;;;;;;;;;;;;;8.49;59.47;99345.66;4469800;32;19972;-80
2022/12/04 01:31:03;;;;;;;;;;;;;;;8.50;59.47;99342.12;4469794;32;20007;-79
2022/12/04 01:33:28;;;;;;;;;;;;;;;8.53;59.47;99344.63;4469654;32;19984;-80
2022/12/04 01:35:54;;;;;;;;;;;;;;;8.58;59.47;99337.44;4469717;32;20296;-79
2022/12/04 01:38:19;;;;;;;;;;;;;;;8.59;59.47;99332.13;4470703;32;19992;-79
2022/12/04 01:40:45;;;;;;;;;;;;;;;8.58;59.64;99337.44;4469495;32;20007;-79
2022/12/04 01:43:11;;;;;;;;;;;;;;;8.62;59.50;99336.41;4481841;32;20015;-79
2022/12/04 01:45:38;;;;;;;;;;;;;;;8.58;59.69;99330.41;4459193;32;19995;-79
2022/12/04 01:48:15;;;;;;;;;;;;;;;8.61;59.73;99332.91;4472145;32;20016;-79
2022/12/04 01:50:41;;;;;;;;;;;;;;;8.62;59.50;99336.41;4472120;32;20114;-79
2022/12/04 01:53:06;;;;;;;;;;;;;;;8.64;59.41;99340.69;4486202;32;20008;-79
2022/12/04 01:55:31;;;;;;;;;;;;;;;8.65;59.29;99338.91;4472018;32;20026;-79
2022/12/04 01:57:57;;;;;;;;;;;;;;;8.72;58.98;99335.16;4473084;32;19972;-80
2022/12/04 02:00:23;;;;;;;;;;;;;;;8.74;58.97;99332.47;4488316;32;19967;-79
2022/12/04 02:02:48;;;;;;;;;;;;;;;8.71;58.96;99333.44;4488437;32;20019;-79
2022/12/04 02:05:15;;;;;;;;;;;;;;;8.64;58.98;99334.59;4461000;32;19984;-79
2022/12/04 02:07:42;;;;;;;;;;;;;;;8.56;59.29;99329.63;4474252;32;20043;-79
2022/12/04 02:10:07;;;;;;;;;;;;;;;8.54;59.36;99322.72;4488309;32;19982;-79
2022/12/04 02:12:45;;;;;;;;;;;;;;;8.55;59.23;99317.41;4488357;32;20067;-79
2022/12/04 02:15:33;;;;;;;;;;;;;;;8.55;59.19;99312.12;4488314;32;19992;-79
2022/12/04 02:18:14;;;;;;;;;;;;;;;8.52;59.23;99317.53;4477939;32;19967;-79
2022/12/04 02:20:46;;;;;;;;;;;;;;;8.50;59.13;99311.47;4488573;32;19990;-79
2022/12/04 02:23:46;;;;;;;;;;;;;;;8.44;59.33;99323.06;4488646;32;19980;-79
2022/12/04 02:26:21;;;;;;;;;;;;;;;8.44;59.27;99309.94;4408637;32;20005;-79
2022/12/04 02:28:49;;;;;;;;;;;;;;;8.40;59.36;99312.69;4395909;32;19988;-78
2022/12/04 02:31:15;;;;;;;;;;;;;;;8.38;59.52;99322.37;4395888;32;19981;-79
2022/12/04 02:33:45;;;;;;;;;;;;;;;8.38;59.60;99319.75;4395754;32;19973;-79
2022/12/04 02:36:12;;;;;;;;;;;;;;;8.32;59.74;99317.38;4395966;32;20001;-79
2022/12/04 02:38:38;;;;;;;;;;;;;;;8.32;59.91;99315.59;4395932;32;20001;-78
2022/12/04 02:41:13;;;;;;;;;;;;;;;8.32;59.93;99310.34;4383021;32;20015;-78
2022/12/04 02:43:42;;;;;;;;;;;;;;;8.32;59.78;99320.00;4395787;32;20388;-79
2022/12/04 02:46:10;;;;;;;;;;;;;;;8.29;59.74;99315.72;4395847;32;20005;-78
2022/12/04 02:48:35;;;;;;;;;;;;;;;8.21;59.92;99326.50;4395736;32;20227;-78
2022/12/04 02:51:01;;;;;;;;;;;;;;;8.18;60.08;99320.50;4395747;32;20037;-78
2022/12/04 02:53:29;;;;;;;;;;;;;;;8.17;60.28;99319.66;4395648;32;20001;-79
2022/12/04 02:55:56;;;;;;;;;;;;;;;8.10;60.45;99320.78;4395747;32;20041;-79
2022/12/04 02:58:26;;;;;;;;;;;;;;;8.10;60.53;99315.53;4395778;32;19981;-80
2022/12/04 03:00:52;;;;;;;;;;;;;;;8.07;60.77;99321.75;4456710;32;19986;-79
2022/12/04 03:03:18;;;;;;;;;;;;;;;8.04;60.98;99319.22;4473596;32;20244;-79
2022/12/04 03:05:50;;;;;;;;;;;;;;;8.06;60.95;99320.03;4473669;32;19991;-79
2022/12/04 03:08:16;;;;;;;;;;;;;;;8.01;61.16;99311.47;4473609;32;19968;-79
2022/12/04 03:10:46;;;;;;;;;;;;;;;7.98;61.11;99306.34;4473672;32;19972;-79
2022/12/04 03:13:14;;;;;;;;;;;;;;;7.99;60.98;99305.41;4487769;32;20295;-79
2022/12/04 03:15:58;;;;;;;;;;;;;;;7.96;60.94;99302.03;4487859;32;19994;-79
2022/12/04 03:18:35;;;;;;;;;;;;;;;7.93;60.91;99308.25;4473604;32;19990;-78
2022/12/04 03:21:02;;;;;;;;;;;;;;;7.93;61.01;99310.03;4473778;32;20006;-78
2022/12/04 03:23:32;;;;;;;;;;;;;;;7.90;60.98;99307.50;4473627;32;20028;-78
2022/12/04 03:26:02;;;;;;;;;;;;;;;7.88;61.01;99303.19;4473585;32;20007;-79
2022/12/04 03:28:30;;;;;;;;;;;;;;;7.87;61.12;99309.31;4473730;32;20031;-79
2022/12/04 03:30:56;;;;;;;;;;;;;;;7.86;61.27;99307.63;4487610;32;20061;-79
2022/12/04 03:33:22;;;;;;;;;;;;;;;7.85;61.23;99310.31;4473555;32;20304;-79
2022/12/04 03:35:48;;;;;;;;;;;;;;;7.78;61.27;99303.53;4473405;32;19984;-78
2022/12/04 03:38:22;;;;;;;;;;;;;;;7.84;61.04;99304.22;4473429;32;20321;-79
2022/12/04 03:40:50;;;;;;;;;;;;;;;7.82;60.98;99300.78;4487626;32;20024;-79
2022/12/04 03:43:19;;;;;;;;;;;;;;;7.77;60.99;99294.84;4487556;32;19991;-79
2022/12/04 03:45:50;;;;;;;;;;;;;;;7.79;60.94;99300.87;4473431;32;20002;-79
2022/12/04 03:48:18;;;;;;;;;;;;;;;7.79;61.03;99297.41;4473361;32;19975;-79
2022/12/04 03:51:02;;;;;;;;;;;;;;;7.80;60.88;99313.09;4487648;32;19995;-79
2022/12/04 03:53:44;;;;;;;;;;;;;;;7.80;60.74;99310.47;4487914;32;20031;-78
2022/12/04 03:56:14;;;;;;;;;;;;;;;7.78;60.70;99314.87;4473561;32;19988;-78
2022/12/04 03:58:41;;;;;;;;;;;;;;;7.76;60.64;99314.09;4473500;32;19963;-79
2022/12/04 04:01:07;;;;;;;;;;;;;;;7.74;60.78;99317.69;4460496;32;19980;-79
2022/12/04 04:03:36;;;;;;;;;;;;;;;7.68;60.88;99311.72;4473278;32;19992;-79
2022/12/04 04:06:09;;;;;;;;;;;;;;;7.52;61.37;99309.69;4487722;32;19983;-79
2022/12/04 04:08:35;;;;;;;;;;;;;;;7.59;61.19;99312.06;4487490;32;20023;-79
2022/12/04 04:11:11;;;;;;;;;;;;;;;7.61;61.06;99314.59;4473178;32;20270;-79
2022/12/04 04:24:45;;;;;;;;;;;;;;;7.56;61.23;99319.16;4475392;32;19990;-79
2022/12/04 04:27:10;;;;;;;;;;;;;;;7.61;60.84;99315.50;4473207;32;19991;-79
2022/12/04 04:29:36;;;;;;;;;;;;;;;7.60;60.68;99318.16;4487379;32;19971;-79
2022/12/04 04:32:10;;;;;;;;;;;;;;;7.57;60.68;99313.00;4473018;32;19980;-79
2022/12/04 04:34:36;;;;;;;;;;;;;;;7.60;60.50;99326.03;4472973;32;20257;-78
2022/12/04 04:37:07;;;;;;;;;;;;;;;7.61;60.31;99323.34;4472883;32;19991;-78
2022/12/04 04:39:40;;;;;;;;;;;;;;;7.63;60.32;99325.91;4473113;32;19976;-78
2022/12/04 04:42:06;;;;;;;;;;;;;;;7.65;60.21;99322.34;4472719;32;20368;-77
2022/12/04 04:44:35;;;;;;;;;;;;;;;7.62;60.42;99326.81;4459922;32;20002;-78
2022/12/04 04:47:01;;;;;;;;;;;;;;;7.64;60.27;99318.00;4472963;32;20601;-78
2022/12/04 04:49:27;;;;;;;;;;;;;;;7.65;60.37;99317.09;4473049;32;19967;-79
2022/12/04 04:51:52;;;;;;;;;;;;;;;7.67;60.23;99312.66;4472880;32;20031;-78
2022/12/04 04:54:17;;;;;;;;;;;;;;;7.73;59.86;99313.38;4472717;32;19995;-78
2022/12/04 04:56:43;;;;;;;;;;;;;;;7.71;59.99;99323.91;4472811;32;20057;-78
2022/12/04 04:59:09;;;;;;;;;;;;;;;7.71;60.24;99309.91;4472742;32;19987;-78
2022/12/04 05:01:34;;;;;;;;;;;;;;;7.65;60.44;99311.84;4459584;32;20025;-78
2022/12/04 05:04:00;;;;;;;;;;;;;;;7.74;60.21;99318.53;4472760;32;20002;-78
2022/12/04 05:06:25;;;;;;;;;;;;;;;7.78;60.23;99324.53;4459604;32;19992;-78
2022/12/04 05:08:51;;;;;;;;;;;;;;;7.82;59.99;99324.38;4486954;32;20009;-78
2022/12/04 05:11:16;;;;;;;;;;;;;;;7.87;59.54;99321.59;4486920;32;20271;-79
2022/12/04 05:13:41;;;;;;;;;;;;;;;7.83;59.44;99318.22;4486756;32;19990;-79
2022/12/04 05:16:09;;;;;;;;;;;;;;;7.88;58.97;99310.22;4472668;32;20338;-79
2022/12/04 05:18:34;;;;;;;;;;;;;;;7.87;58.94;99308.47;4472523;32;20041;-79
2022/12/04 05:21:16;;;;;;;;;;;;;;;7.84;58.95;99311.19;4486706;32;19976;-78
2022/12/04 05:23:41;;;;;;;;;;;;;;;7.79;58.86;99308.75;4473277;32;19995;-78
2022/12/04 05:26:07;;;;;;;;;;;;;;;7.70;58.95;99306.44;4486730;32;20300;-78
2022/12/04 05:28:32;;;;;;;;;;;;;;;7.70;58.96;99313.47;4472388;32;20308;-78
2022/12/04 05:30:58;;;;;;;;;;;;;;;7.66;58.96;99312.69;4486632;32;19994;-78
2022/12/04 05:33:23;;;;;;;;;;;;;;;7.62;58.94;99311.94;4487926;32;20014;-78
2022/12/04 05:35:58;;;;;;;;;;;;;;;7.63;58.93;99318.91;4488601;32;20002;-79
2022/12/04 05:38:23;;;;;;;;;;;;;;;7.64;58.84;99304.88;4488615;32;20323;-80
2022/12/04 05:40:48;;;;;;;;;;;;;;;7.48;59.34;99308.94;4474181;32;19994;-79
2022/12/04 05:43:14;;;;;;;;;;;;;;;7.39;59.61;99317.09;4488418;32;20280;-78
2022/12/04 05:45:39;;;;;;;;;;;;;;;7.42;59.52;99309.16;4488539;32;19987;-78
2022/12/04 05:48:04;;;;;;;;;;;;;;;7.49;59.59;99308.03;4488359;32;20258;-78
2022/12/04 05:50:30;;;;;;;;;;;;;;;7.48;59.62;99311.56;4488274;32;19995;-78
2022/12/04 05:52:55;;;;;;;;;;;;;;;7.46;59.52;99316.00;4474046;32;19986;-78
2022/12/04 05:55:20;;;;;;;;;;;;;;;7.47;59.59;99315.97;4488262;32;19980;-79
2022/12/04 05:57:45;;;;;;;;;;;;;;;7.48;59.51;99322.91;4488437;32;19971;-79
2022/12/04 06:00:11;;;;;;;;;;;;;;;7.51;59.18;99316.69;4488338;32;19988;-80
2022/12/04 06:02:36;;;;;;;;;;;;;;;7.50;59.10;99327.25;4474045;32;19984;-79
2022/12/04 06:05:02;;;;;;;;;;;;;;;7.50;59.04;99317.63;4488378;32;19980;-79
2022/12/04 06:07:27;;;;;;;;;;;;;;;7.51;59.02;99323.69;4488244;32;19964;-79
2022/12/04 06:09:53;;;;;;;;;;;;;;;7.52;58.95;99325.44;4488162;32;19979;-79
2022/12/04 06:12:18;;;;;;;;;;;;;;;7.55;58.89;99315.69;4488373;32;19994;-78
2022/12/04 06:14:44;;;;;;;;;;;;;;;7.51;58.96;99324.56;4488032;32;19992;-79
2022/12/04 06:17:09;;;;;;;;;;;;;;;7.53;58.97;99322.72;4488253;32;19963;-81
2022/12/04 06:19:34;;;;;;;;;;;;;;;7.57;58.90;99327.00;4488226;32;20274;-80
2022/12/04 06:21:59;;;;;;;;;;;;;;;7.58;58.95;99338.34;4488290;32;19971;-78
2022/12/04 06:24:25;;;;;;;;;;;;;;;7.59;59.00;99338.28;4488176;32;20240;-78
2022/12/04 06:26:54;;;;;;;;;;;;;;;7.59;59.15;99334.78;4488223;32;19991;-78
2022/12/04 06:29:19;;;;;;;;;;;;;;;7.59;59.23;99334.78;4488126;32;20031;-77
2022/12/04 06:31:44;;;;;;;;;;;;;;;7.55;59.49;99323.56;4488242;32;19972;-78
2022/12/04 06:34:09;;;;;;;;;;;;;;;7.61;59.55;99333.84;4488045;32;19972;-78
2022/12/04 06:36:35;;;;;;;;;;;;;;;7.63;59.70;99328.53;4488065;32;20269;-78
2022/12/04 06:39:00;;;;;;;;;;;;;;;7.65;59.67;99330.22;4473758;32;19999;-78
2022/12/04 06:41:26;;;;;;;;;;;;;;;7.67;59.62;99333.62;4488089;32;20000;-78
2022/12/04 06:43:54;;;;;;;;;;;;;;;7.78;59.26;99329.78;4473514;32;20025;-78
2022/12/04 06:46:21;;;;;;;;;;;;;;;7.76;59.29;99335.06;4487904;32;20315;-78
2022/12/04 06:48:46;;;;;;;;;;;;;;;7.75;59.31;99335.16;4473908;32;19976;-78
2022/12/04 06:51:12;;;;;;;;;;;;;;;7.81;59.17;99337.56;4487878;32;19995;-78
2022/12/04 06:53:37;;;;;;;;;;;;;;;7.84;59.20;99330.44;4487832;32;20248;-78
2022/12/04 06:56:04;;;;;;;;;;;;;;;7.85;59.29;99326.03;4473627;32;19968;-78
2022/12/04 06:58:29;;;;;;;;;;;;;;;7.84;59.46;99327.81;4487650;32;19967;-78
2022/12/04 07:00:55;;;;;;;;;;;;;;;7.90;59.46;99324.13;4473517;32;20022;-79
2022/12/04 07:03:20;;;;;;;;;;;;;;;7.93;59.49;99323.16;4473757;32;19976;-80
2022/12/04 07:05:46;;;;;;;;;;;;;;;7.97;59.46;99316.88;4487856;32;20295;-78
2022/12/04 07:08:11;;;;;;;;;;;;;;;7.96;59.49;99321.28;4487949;32;19984;-77
2022/12/04 07:10:36;;;;;;;;;;;;;;;8.01;59.36;99329.81;4473616;32;19980;-80
2022/12/04 07:13:02;;;;;;;;;;;;;;;8.07;59.20;99327.00;4487683;32;20454;-79
2022/12/04 07:15:28;;;;;;;;;;;;;;;8.04;59.23;99332.34;4473585;32;19969;-80
2022/12/04 07:17:53;;;;;;;;;;;;;;;8.04;59.39;99328.88;4460374;32;20007;-80
2022/12/04 07:20:18;;;;;;;;;;;;;;;8.08;59.48;99327.84;4487830;32;19968;-79
2022/12/04 07:22:44;;;;;;;;;;;;;;;8.08;59.64;99341.81;4487904;32;20002;-80
2022/12/04 07:25:09;;;;;;;;;;;;;;;8.13;59.70;99346.03;4487739;32;19981;-80
2022/12/04 07:27:34;;;;;;;;;;;;;;;8.18;59.57;99338.87;4473505;32;19968;-79
2022/12/04 07:29:59;;;;;;;;;;;;;;;8.08;59.79;99335.72;4473408;32;19988;-80
2022/12/04 07:32:25;;;;;;;;;;;;;;;8.15;59.54;99334.59;4487754;32;20275;-80
2022/12/04 07:34:50;;;;;;;;;;;;;;;8.22;59.38;99341.31;4487773;32;19964;-79
2022/12/04 07:37:15;;;;;;;;;;;;;;;8.24;59.30;99342.12;4487547;32;19972;-80
2022/12/04 07:39:41;;;;;;;;;;;;;;;8.24;59.41;99339.50;4473486;32;20272;-79
2022/12/04 07:42:06;;;;;;;;;;;;;;;8.30;59.39;99340.19;4487498;32;19972;-80
2022/12/04 07:44:31;;;;;;;;;;;;;;;8.33;59.29;99340.09;4473369;32;19972;-79
2022/12/04 07:46:56;;;;;;;;;;;;;;;8.35;59.17;99336.50;4487618;32;20024;-80
2022/12/04 07:49:22;;;;;;;;;;;;;;;8.43;59.06;99346.75;4487613;32;20297;-80
2022/12/04 07:51:47;;;;;;;;;;;;;;;8.50;58.83;99342.12;4487542;32;19998;-80
2022/12/04 07:54:12;;;;;;;;;;;;;;;8.52;58.54;99343.78;4487064;32;19986;-80
2022/12/04 07:56:37;;;;;;;;;;;;;;;8.52;58.68;99348.16;4486816;32;19968;-80
2022/12/04 07:59:03;;;;;;;;;;;;;;;8.55;58.52;99340.19;4473190;32;20016;-79
2022/12/04 08:01:29;;;;;;;;;;;;;;;8.56;58.60;99336.66;4487509;32;19972;-79
2022/12/04 08:03:54;;;;;;;;;;;;;;;8.58;58.56;99335.69;4487456;32;19994;-79
2022/12/04 08:06:21;;;;;;;;;;;;;;;8.62;58.49;99331.16;4473334;32;20319;-79
2022/12/04 08:08:46;;;;;;;;;;;;;;;8.63;58.55;99323.25;4473119;32;20332;-79
2022/12/04 08:11:13;;;;;;;;;;;;;;;8.66;58.42;99322.25;4473056;32;20002;-79
2022/12/04 08:13:38;;;;;;;;;;;;;;;8.60;58.30;99331.22;4473107;32;20023;-79
2022/12/04 08:16:04;;;;;;;;;;;;;;;8.56;58.36;99341.91;4487452;32;20014;-80
2022/12/04 08:18:29;;;;;;;;;;;;;;;8.57;58.39;99346.22;4473190;32;20018;-80
2022/12/04 08:21:01;;;;;;;;;;;;;;;8.59;58.38;99345.25;4487464;32;20028;-79
2022/12/04 08:23:26;;;;;;;;;;;;;;;8.59;58.41;99340.00;4487463;32;20412;-80
2022/12/04 08:25:51;;;;;;;;;;;;;;;8.56;58.35;99334.03;4473175;32;19972;-79
2022/12/04 08:28:16;;;;;;;;;;;;;;;8.56;58.31;99331.41;4473115;32;19990;-79
2022/12/04 08:30:42;;;;;;;;;;;;;;;8.56;58.43;99331.41;4487432;32;19994;-79
2022/12/04 08:33:07;;;;;;;;;;;;;;;8.27;59.23;99331.53;4487206;32;19982;-79
2022/12/04 08:35:32;;;;;;;;;;;;;;;8.44;58.89;99327.44;4473029;32;20354;-79
2022/12/04 08:37:58;;;;;;;;;;;;;;;8.53;58.79;99334.12;4472890;32;20018;-79
2022/12/04 08:40:23;;;;;;;;;;;;;;;8.47;58.75;99332.59;4487138;32;20033;-80
2022/12/04 08:42:48;;;;;;;;;;;;;;;8.53;58.79;99327.09;4472719;32;19976;-80
2022/12/04 08:45:14;;;;;;;;;;;;;;;8.61;58.57;99332.91;4472992;32;20018;-80
2022/12/04 08:47:39;;;;;;;;;;;;;;;8.65;58.65;99329.28;4487031;32;19979;-79
2022/12/04 08:50:05;;;;;;;;;;;;;;;8.71;58.63;99329.94;4472848;32;19983;-79
2022/12/04 08:52:31;;;;;;;;;;;;;;;8.77;58.66;99335.84;4487134;32;19967;-79
2022/12/04 08:54:56;;;;;;;;;;;;;;;8.81;58.75;99336.59;4487042;32;20035;-78
2022/12/04 08:57:21;;;;;;;;;;;;;;;8.89;58.69;99336.28;4487177;32;20016;-79
2022/12/04 08:59:46;;;;;;;;;;;;;;;8.95;58.61;99330.78;4486922;32;19984;-79
2022/12/04 09:02:12;;;;;;;;;;;;;;;9.02;58.13;99330.47;4487120;32;20213;-80
2022/12/04 09:04:37;;;;;;;;;;;;;;;9.01;57.68;99335.78;4487008;32;19971;-80
2022/12/04 09:07:02;;;;;;;;;;;;;;;8.57;58.72;99336.56;4486774;32;20032;-79
2022/12/04 09:09:28;;;;;;;;;;;;;;;8.67;58.64;99342.34;4487009;32;19976;-79
2022/12/04 09:11:53;;;;;;;;;;;;;;;8.95;58.07;99334.25;4472424;32;20052;-80
2022/12/04 09:14:24;;;;;;;;;;;;;;;9.05;57.65;99324.25;4486862;32;19972;-80
2022/12/04 09:16:50;;;;;;;;;;;;;;;9.09;57.55;99327.59;4486783;32;20259;-78
2022/12/04 09:19:16;;;;;;;;;;;;;;;9.08;57.64;99326.75;4486894;32;19979;-80
2022/12/04 09:21:41;;;;;;;;;;;;;;;9.11;57.61;99321.34;4490940;31;19986;-80
2022/12/04 09:24:06;;;;;;;;;;;;;;;9.16;57.51;99318.56;4493696;31;19972;-80
2022/12/04 09:26:32;;;;;;;;;;;;;;;9.24;57.43;99309.44;4480857;31;20024;-80
2022/12/04 09:28:58;;;;;;;;;;;;;;;7.85;61.07;99336.53;4482455;31;20346;-80
2022/12/04 09:31:23;;;;;;;;;;;;;;;8.73;59.20;99326.38;4492637;31;20005;-80
2022/12/04 09:33:49;;;;;;;;;;;;;;;9.07;58.51;99324.19;4494077;31;19968;-80
2022/12/04 09:36:17;;;;;;;;;;;;;;;9.27;58.02;99315.47;4480241;31;20372;-80
2022/12/04 09:38:47;;;;;;;;;;;;;;;9.43;57.66;99311.31;4481330;31;19991;-80
2022/12/04 09:41:21;;;;;;;;;;;;;;;9.47;57.23;99301.53;4476430;32;19991;-80
2022/12/04 09:43:52;;;;;;;;;;;;;;;9.58;56.95;99300.16;4486253;32;20425;-80
2022/12/04 09:46:18;;;;;;;;;;;;;;;9.69;56.88;99304.09;4459238;32;19992;-81
2022/12/04 09:48:43;;;;;;;;;;;;;;;9.77;56.64;99294.97;4472104;32;20096;-81
2022/12/04 09:51:17;;;;;;;;;;;;;;;9.87;56.40;99289.28;4486309;32;19967;-81
2022/12/04 09:53:44;;;;;;;;;;;;;;;9.81;56.40;99296.53;4474505;31;20027;-79
2022/12/04 09:56:10;;;;;;;;;;;;;;;9.58;56.65;99283.50;4478427;31;20043;-79
2022/12/04 09:58:35;;;;;;;;;;;;;;;9.28;57.44;99285.66;4479491;31;19996;-80
2022/12/04 10:01:01;;;;;;;;;;;;;;;9.51;56.78;99282.91;4493724;31;20243;-80
2022/12/04 10:03:27;;;;;;;;;;;;;;;9.35;57.11;99280.09;4478303;31;20240;-79
2022/12/04 10:06:04;;;;;;;;;;;;;;;9.60;56.65;99273.75;4479783;31;20007;-81
2022/12/04 10:08:40;;;;;;;;;;;;;;;9.75;56.39;99277.53;4486691;31;20071;-80
2022/12/04 10:11:05;;;;;;;;;;;;;;;9.86;55.94;99272.66;4478193;31;20039;-79
2022/12/04 10:13:43;;;;;;;;;;;;;;;9.52;56.69;99260.97;4491518;31;20009;-79
2022/12/04 10:16:28;;;;;;;;;;;;;;;9.58;56.41;99258.06;4479491;31;19987;-79
2022/12/04 10:19:12;;;;;;;;;;;;;;;9.57;56.64;99253.72;4418888;32;19990;-79
2022/12/04 10:21:53;;;;;;;;;;;;;;;9.89;56.04;99259.38;4415463;32;19977;-78
2022/12/04 10:24:24;;;;;;;;;;;;;;;9.10;57.51;99253.06;4410087;32;19983;-79
2022/12/04 10:26:49;;;;;;;;;;;;;;;9.76;56.19;99247.69;4411922;32;20056;-79
2022/12/04 10:29:33;;;;;;;;;;;;;;;9.94;55.89;99236.31;4400388;32;19996;-79
2022/12/04 10:32:22;;;;;;;;;;;;;;;9.86;55.80;99243.72;4399474;32;20689;-79
2022/12/04 10:34:48;;;;;;;;;;;;;;;9.49;56.79;99239.22;4406276;32;19989;-79
2022/12/04 10:37:14;;;;;;;;;;;;;;;9.40;56.68;99232.56;4401135;32;20003;-80
2022/12/04 10:39:53;;;;;;;;;;;;;;;9.73;55.99;99234.66;4398580;32;20005;-80
2022/12/04 10:42:52;;;;;;;;;;;;;;;9.94;55.58;99224.94;4411578;32;19985;-79
2022/12/04 10:45:17;;;;;;;;;;;;;;;10.07;54.96;99228.72;4373612;32;19997;-79
2022/12/04 10:47:44;;;;;;;;;;;;;;;9.98;55.04;99222.09;4350084;32;20318;-81
2022/12/04 10:50:13;;;;;;;;;;;;;;;10.18;55.02;99212.47;4350491;32;19987;-80
2022/12/04 10:52:39;;;;;;;;;;;;;;;10.20;54.68;99210.59;4337479;32;20350;-80
2022/12/04 10:55:04;;;;;;;;;;;;;;;10.29;54.41;99209.31;4367212;32;20020;-81
2022/12/04 10:57:36;;;;;;;;;;;;;;;10.35;54.05;99204.66;4418151;32;20008;-80
2022/12/04 11:00:03;;;;;;;;;;;;;;;10.30;54.01;99198.75;4418842;32;19989;-80
2022/12/04 11:02:29;;;;;;;;;;;;;;;10.53;53.79;99196.81;4414297;32;19973;-80
2022/12/04 11:05:04;;;;;;;;;;;;;;;10.70;52.91;99194.22;4407450;32;20017;-80
2022/12/04 11:07:32;;;;;;;;;;;;;;;9.86;55.43;99184.97;4415837;32;20333;-80
2022/12/04 11:10:01;;;;;;;;;;;;;;;9.87;55.10;99194.56;4406233;32;20055;-81
2022/12/04 11:12:26;;;;;;;;;;;;;;;9.84;55.12;99180.63;4405018;32;20011;-78
2022/12/04 11:14:58;;;;;;;;;;;;;;;10.26;54.38;99177.84;4397444;32;19997;-80
2022/12/04 11:17:24;;;;;;;;;;;;;;;10.28;54.21;99176.03;4394486;32;20319;-80
2022/12/04 11:19:57;;;;;;;;;;;;;;;10.30;54.10;99174.16;4412609;32;20372;-81
2022/12/04 11:22:23;;;;;;;;;;;;;;;10.55;53.54;99166.81;4477495;31;20022;-81
2022/12/04 11:24:56;;;;;;;;;;;;;;;10.27;54.11;99161.13;4475933;31;19976;-81
2022/12/04 11:27:27;;;;;;;;;;;;;;;10.43;53.72;99157.75;4489483;31;19979;-80
2022/12/04 11:29:52;;;;;;;;;;;;;;;10.69;52.92;99160.03;4488689;31;19987;-82
2022/12/04 11:32:22;;;;;;;;;;;;;;;10.74;52.99;99158.00;4476773;31;20015;-82
2022/12/04 11:34:50;;;;;;;;;;;;;;;10.87;52.85;99159.09;4475846;31;20378;-81
2022/12/04 11:37:20;;;;;;;;;;;;;;;10.93;52.76;99150.03;4489446;31;19983;-81
2022/12/04 11:39:45;;;;;;;;;;;;;;;10.93;52.43;99147.41;4475483;32;19988;-80
2022/12/04 11:42:15;;;;;;;;;;;;;;;10.80;52.58;99157.72;4475811;31;20019;-80
2022/12/04 11:44:48;;;;;;;;;;;;;;;10.84;51.94;99164.53;4463567;31;19986;-80
2022/12/04 11:47:18;;;;;;;;;;;;;;;10.98;52.16;99155.94;4475219;32;20068;-80
2022/12/04 11:49:43;;;;;;;;;;;;;;;10.90;52.13;99144.94;4475368;32;19988;-80
2022/12/04 11:52:20;;;;;;;;;;;;;;;10.96;51.59;99132.28;4475722;31;19981;-85
2022/12/04 11:54:52;;;;;;;;;;;;;;;10.93;51.78;99135.09;4475662;31;19972;-83
2022/12/04 11:57:26;;;;;;;;;;;;;;;10.73;52.11;99130.81;4489486;31;20010;-80
2022/12/04 12:00:14;;;;;;;;;;;;;;;10.77;52.50;99121.81;4489406;31;20023;-80
2022/12/04 12:02:45;;;;;;;;;;;;;;;10.98;52.21;99129.59;4489778;31;19980;-80
2022/12/04 12:05:26;;;;;;;;;;;;;;;10.88;52.52;99118.66;4489295;31;19997;-79
2022/12/04 12:07:58;;;;;;;;;;;;;;;10.93;52.01;99119.28;4475185;32;20035;-80
2022/12/04 12:10:28;;;;;;;;;;;;;;;11.04;51.88;99118.72;4482214;31;19996;-80
2022/12/04 12:12:54;;;;;;;;;;;;;;;11.04;52.14;99120.50;4475635;31;20260;-81
2022/12/04 12:15:22;;;;;;;;;;;;;;;10.82;52.35;99117.19;4491822;31;20000;-80
2022/12/04 12:18:02;;;;;;;;;;;;;;;10.84;52.01;99119.75;4491020;31;20380;-81
2022/12/04 12:20:29;;;;;;;;;;;;;;;11.05;51.55;99131.00;4486332;31;19994;-80
2022/12/04 12:23:13;;;;;;;;;;;;;;;11.13;51.53;99134.06;4485596;31;19979;-80
2022/12/04 12:25:57;;;;;;;;;;;;;;;11.12;51.56;99128.88;4499287;31;19987;-81
2022/12/04 12:28:28;;;;;;;;;;;;;;;11.03;51.59;99135.50;4497373;31;20029;-80
2022/12/04 12:31:27;;;;;;;;;;;;;;;11.04;51.61;99125.78;4486820;32;19972;-81
2022/12/04 12:33:58;;;;;;;;;;;;;;;10.70;52.64;99130.09;4474647;32;20048;-80
2022/12/04 12:36:24;;;;;;;;;;;;;;;11.02;51.94;99129.34;4491877;31;20086;-80
2022/12/04 12:38:50;;;;;;;;;;;;;;;11.00;51.90;99130.34;4474966;31;20019;-80
2022/12/04 12:41:16;;;;;;;;;;;;;;;11.08;51.81;99130.81;4474619;32;20039;-80
2022/12/04 12:43:43;;;;;;;;;;;;;;;11.16;51.74;99125.16;4482642;31;19990;-81
2022/12/04 12:46:16;;;;;;;;;;;;;;;11.10;51.83;99134.22;4474147;32;20236;-82
2022/12/04 12:49:00;;;;;;;;;;;;;;;10.68;52.76;99134.59;4475024;31;19976;-81
2022/12/04 12:51:39;;;;;;;;;;;;;;;10.80;52.37;99126.09;4496472;31;20299;-82
2022/12/04 12:54:31;;;;;;;;;;;;;;;10.99;51.94;99123.38;4469609;31;20075;-81
2022/12/04 12:57:01;;;;;;;;;;;;;;;10.64;52.72;99126.00;4422358;32;19997;-93
2022/12/04 12:59:26;;;;;;;;;;;;;;;10.86;52.31;99122.31;4421814;32;20050;-90
2022/12/04 13:02:13;;;;;;;;;;;;;;;10.86;52.29;99114.41;4409525;32;20008;-89
2022/12/04 13:04:42;;;;;;;;;;;;;;;10.78;52.62;99114.78;4415217;32;20035;-87
2022/12/04 13:07:16;;;;;;;;;;;;;;;10.98;52.39;99113.78;4408780;32;19973;-89
2022/12/04 13:09:43;;;;;;;;;;;;;;;10.86;52.38;99119.69;4420875;32;20369;-83
2022/12/04 13:12:10;;;;;;;;;;;;;;;11.02;52.22;99118.78;4413126;32;20015;-90